createdAt,value
2023-02-18T00:01:40.154Z,84.90
2023-02-18T00:04:08.089Z,84.70
2023-02-18T00:06:38.836Z,84.70
2023-02-18T00:09:08.941Z,84.80
2023-02-18T00:11:38.470Z,85.00
2023-02-18T00:14:08.629Z,85.00
2023-02-18T00:16:38.234Z,85.00
2023-02-18T00:19:09.328Z,85.00
2023-02-18T00:21:37.577Z,85.00
2023-02-18T00:24:06.658Z,85.00
2023-02-18T00:26:34.886Z,84.90
2023-02-18T00:29:03.176Z,85.00
2023-02-18T00:31:33.853Z,85.10
2023-02-18T00:34:05.879Z,85.10
2023-02-18T00:36:36.176Z,85.00
2023-02-18T00:39:07.495Z,85.00
2023-02-18T00:41:36.612Z,85.00
2023-02-18T00:44:05.439Z,85.00
2023-02-18T00:46:35.945Z,85.20
2023-02-18T00:49:07.146Z,85.20
2023-02-18T00:51:37.035Z,85.30
2023-02-18T00:54:05.220Z,85.30
2023-02-18T00:56:33.079Z,85.60
2023-02-18T00:59:00.907Z,85.70
2023-02-18T01:01:29.492Z,85.70
2023-02-18T01:04:08.747Z,85.70
2023-02-18T01:06:36.676Z,86.00
2023-02-18T01:09:04.842Z,85.80
2023-02-18T01:11:33.098Z,86.00
2023-02-18T01:14:01.253Z,85.90
2023-02-18T01:16:31.051Z,86.10
2023-02-18T01:18:59.110Z,86.20
2023-02-18T01:21:28.607Z,86.20
2023-02-18T01:23:56.586Z,86.30
2023-02-18T01:26:24.525Z,86.40
2023-02-18T01:28:52.403Z,86.40
2023-02-18T01:31:21.525Z,86.40
2023-02-18T01:33:49.469Z,86.50
2023-02-18T01:36:18.496Z,86.50
2023-02-18T01:38:47.718Z,86.50
2023-02-18T01:41:18.538Z,86.50
2023-02-18T01:43:46.461Z,86.60
2023-02-18T01:46:17.997Z,86.60
2023-02-18T01:48:51.192Z,86.60
2023-02-18T01:51:22.532Z,86.80
2023-02-18T01:53:57.521Z,86.80
2023-02-18T01:56:29.664Z,86.90
2023-02-18T01:59:01.818Z,86.90
2023-02-18T02:01:30.196Z,87.00
2023-02-18T02:03:58.077Z,87.00
2023-02-18T02:06:27.075Z,87.10
2023-02-18T02:08:59.981Z,87.20
2023-02-18T02:11:44.522Z,87.30
2023-02-18T02:14:43.174Z,87.30
2023-02-18T02:17:18.903Z,87.20
2023-02-18T02:20:36.235Z,87.30
2023-02-18T02:23:40.364Z,87.40
2023-02-18T02:26:33.958Z,87.40
2023-02-18T02:29:18.548Z,87.50
2023-02-18T02:32:11.818Z,87.70
2023-02-18T02:34:49.547Z,87.80
2023-02-18T02:37:27.082Z,87.90
2023-02-18T02:40:04.001Z,87.90
2023-02-18T02:42:47.959Z,87.80
2023-02-18T02:45:24.966Z,87.60
2023-02-18T02:48:00.067Z,87.80
2023-02-18T02:50:39.783Z,87.80
2023-02-18T02:53:14.619Z,87.60
2023-02-18T02:55:42.542Z,87.70
2023-02-18T02:58:14.645Z,87.70
2023-02-18T03:00:54.046Z,87.70
2023-02-18T03:03:42.118Z,87.90
2023-02-18T03:06:38.339Z,87.80
2023-02-18T03:09:15.222Z,87.90
2023-02-18T03:11:49.650Z,87.80
2023-02-18T03:14:28.192Z,87.70
2023-02-18T03:17:02.922Z,87.80
2023-02-18T03:19:35.243Z,87.80
2023-02-18T03:22:09.636Z,87.90
2023-02-18T03:24:40.506Z,87.90
2023-02-18T03:27:15.084Z,87.80
2023-02-18T03:29:47.900Z,87.90
2023-02-18T03:32:20.502Z,88.00
2023-02-18T03:34:52.824Z,87.90
2023-02-18T03:37:23.127Z,87.90
2023-02-18T03:39:56.727Z,87.90
2023-02-18T03:42:27.085Z,88.10
2023-02-18T03:44:55.313Z,88.00
2023-02-18T03:47:25.017Z,88.00
2023-02-18T03:49:52.918Z,88.00
2023-02-18T03:52:22.454Z,88.00
2023-02-18T03:54:51.800Z,88.00
2023-02-18T03:57:19.714Z,88.00
2023-02-18T03:59:47.617Z,88.10
2023-02-18T04:02:15.455Z,88.10
2023-02-18T04:04:43.337Z,88.10
2023-02-18T04:07:11.348Z,88.10
2023-02-18T04:09:40.620Z,88.30
2023-02-18T04:12:08.927Z,88.20
2023-02-18T04:14:36.878Z,88.10
2023-02-18T04:17:05.114Z,88.20
2023-02-18T04:19:32.956Z,88.20
2023-02-18T04:22:00.862Z,88.20
2023-02-18T04:24:28.756Z,88.20
2023-02-18T04:27:12.874Z,88.30
2023-02-18T04:29:40.894Z,88.30
2023-02-18T04:32:08.938Z,88.30
2023-02-18T04:34:36.939Z,88.30
2023-02-18T04:37:04.840Z,88.40
2023-02-18T04:39:32.722Z,88.30
2023-02-18T04:42:00.674Z,88.40
2023-02-18T04:44:29.900Z,88.30
2023-02-18T04:46:57.884Z,88.40
2023-02-18T04:49:25.774Z,88.40
2023-02-18T04:51:54.004Z,88.50
2023-02-18T04:54:21.940Z,88.50
2023-02-18T04:56:49.809Z,88.40
2023-02-18T04:59:18.478Z,88.40
2023-02-18T05:01:47.794Z,88.30
2023-02-18T05:04:17.368Z,88.40
2023-02-18T05:06:45.864Z,88.40
2023-02-18T05:09:15.580Z,88.50
2023-02-18T05:11:44.323Z,88.40
2023-02-18T05:14:14.400Z,88.40
2023-02-18T05:16:43.441Z,88.30
2023-02-18T05:19:16.204Z,88.30
2023-02-18T05:21:44.234Z,88.40
2023-02-18T05:24:13.254Z,88.40
2023-02-18T05:26:42.638Z,88.50
2023-02-18T05:29:10.696Z,88.50
2023-02-18T05:31:39.469Z,88.40
2023-02-18T05:34:07.379Z,88.40
2023-02-18T05:36:36.664Z,88.30
2023-02-18T05:39:04.716Z,88.20
2023-02-18T05:41:32.682Z,88.30
2023-02-18T05:44:18.314Z,88.30
2023-02-18T05:46:46.270Z,88.40
2023-02-18T05:49:14.186Z,88.40
2023-02-18T05:51:43.403Z,88.40
2023-02-18T05:54:11.262Z,88.40
2023-02-18T05:56:39.140Z,88.30
2023-02-18T05:59:06.997Z,88.30
2023-02-18T06:01:35.108Z,88.20
2023-02-18T06:04:03.003Z,88.30
2023-02-18T06:06:30.883Z,88.30
2023-02-18T06:09:00.112Z,88.40
2023-02-18T06:11:28.092Z,88.30
2023-02-18T06:13:55.956Z,88.30
2023-02-18T06:16:24.069Z,88.20
2023-02-18T06:18:52.226Z,88.10
2023-02-18T06:21:20.337Z,88.30
2023-02-18T06:23:48.829Z,88.20
2023-02-18T06:26:18.068Z,88.40
2023-02-18T06:28:46.076Z,88.30
2023-02-18T06:31:14.339Z,88.20
2023-02-18T06:33:42.288Z,88.10
2023-02-18T06:36:13.480Z,88.10
2023-02-18T06:38:42.719Z,88.10
2023-02-18T06:41:11.075Z,88.10
2023-02-18T06:43:41.050Z,88.00
2023-02-18T06:46:10.376Z,88.00
2023-02-18T06:48:39.064Z,87.90
2023-02-18T06:51:07.550Z,87.80
2023-02-18T06:53:35.438Z,87.80
2023-02-18T06:56:04.559Z,87.60
2023-02-18T06:58:32.618Z,87.40
2023-02-18T07:01:02.064Z,87.50
2023-02-18T07:03:30.089Z,87.40
2023-02-18T07:05:59.010Z,87.30
2023-02-18T07:08:26.946Z,87.20
2023-02-18T07:10:54.969Z,87.20
2023-02-18T07:13:23.904Z,87.10
2023-02-18T07:15:54.802Z,86.90
2023-02-18T07:18:24.130Z,86.90
2023-02-18T07:20:52.307Z,86.70
2023-02-18T07:23:20.179Z,86.80
2023-02-18T07:25:48.434Z,86.40
2023-02-18T07:28:17.472Z,86.60
2023-02-18T07:30:45.435Z,86.50
2023-02-18T07:33:14.178Z,86.40
2023-02-18T07:35:43.460Z,86.00
2023-02-18T07:38:11.629Z,85.80
2023-02-18T07:40:39.581Z,86.00
2023-02-18T07:43:07.494Z,85.80
2023-02-18T07:45:35.425Z,85.60
2023-02-18T07:48:03.572Z,85.80
2023-02-18T07:50:35.114Z,85.80
2023-02-18T07:53:05.163Z,85.80
2023-02-18T07:55:47.183Z,85.70
2023-02-18T07:58:15.123Z,85.60
2023-02-18T08:00:42.988Z,85.60
2023-02-18T08:03:11.164Z,85.60
2023-02-18T08:05:39.074Z,85.50
2023-02-18T08:08:08.260Z,85.60
2023-02-18T08:10:36.348Z,85.50
2023-02-18T08:13:04.727Z,85.50
2023-02-18T08:15:32.746Z,85.60
2023-02-18T08:18:01.446Z,85.60
2023-02-18T08:20:30.677Z,85.30
2023-02-18T08:22:58.762Z,85.40
2023-02-18T08:25:29.990Z,85.20
2023-02-18T08:27:58.280Z,85.00
2023-02-18T08:30:26.728Z,84.90
2023-02-18T08:32:54.827Z,85.00
2023-02-18T08:35:22.803Z,85.10
2023-02-18T08:37:53.336Z,85.00
2023-02-18T08:40:22.560Z,84.60
2023-02-18T08:42:51.802Z,84.50
2023-02-18T08:45:20.273Z,84.10
2023-02-18T08:48:17.599Z,84.00
2023-02-18T08:50:36.386Z,84.10
2023-02-18T08:53:05.601Z,84.20
2023-02-18T08:55:35.099Z,84.00
2023-02-18T08:58:06.215Z,83.90
2023-02-18T09:00:34.618Z,83.80
2023-02-18T09:03:02.576Z,83.90
2023-02-18T09:05:30.542Z,83.90
2023-02-18T09:07:58.463Z,83.90
2023-02-18T09:10:26.615Z,83.90
2023-02-18T09:12:54.644Z,83.80
2023-02-18T09:15:23.861Z,83.70
2023-02-18T09:17:51.868Z,83.80
2023-02-18T09:20:20.304Z,83.80
2023-02-18T09:23:39.759Z,83.80
2023-02-18T09:26:09.101Z,83.70
2023-02-18T09:28:37.652Z,83.70
2023-02-18T09:31:11.105Z,83.20
2023-02-18T09:33:43.275Z,82.50
2023-02-18T09:36:12.264Z,82.80
2023-02-18T09:38:40.204Z,82.80
2023-02-18T09:41:15.233Z,82.90
2023-02-18T09:43:46.773Z,82.70
2023-02-18T09:46:20.908Z,82.20
2023-02-18T09:48:49.515Z,82.30
2023-02-18T09:51:18.003Z,82.00
2023-02-18T09:53:47.048Z,81.80
2023-02-18T09:56:40.388Z,81.50
2023-02-18T09:59:14.452Z,81.90
2023-02-18T10:01:45.468Z,81.90
2023-02-18T10:04:19.160Z,81.60
2023-02-18T10:06:49.090Z,81.60
2023-02-18T10:09:22.167Z,81.40
2023-02-18T10:11:52.682Z,81.40
2023-02-18T10:14:21.121Z,81.50
2023-02-18T10:16:53.275Z,81.20
2023-02-18T10:19:30.531Z,81.00
2023-02-18T10:21:59.121Z,80.90
2023-02-18T10:24:30.665Z,80.80
2023-02-18T10:26:59.757Z,80.90
2023-02-18T10:29:29.259Z,80.80
2023-02-18T10:32:06.843Z,80.80
2023-02-18T10:34:45.055Z,80.70
2023-02-18T10:37:39.150Z,80.70
2023-02-18T10:40:12.196Z,80.40
2023-02-18T10:42:51.026Z,80.60
2023-02-18T10:45:30.416Z,80.50
2023-02-18T10:48:18.710Z,80.40
2023-02-18T10:50:47.911Z,80.40
2023-02-18T10:53:19.949Z,80.30
2023-02-18T10:55:49.409Z,80.40
2023-02-18T10:58:31.070Z,80.20
2023-02-18T11:00:59.749Z,80.30
2023-02-18T11:03:41.472Z,80.30
2023-02-18T11:06:21.362Z,80.00
2023-02-18T11:08:50.552Z,80.10
2023-02-18T11:11:24.071Z,79.90
2023-02-18T11:13:55.541Z,79.80
2023-02-18T11:16:24.445Z,79.80
2023-02-18T11:18:53.744Z,79.40
2023-02-18T11:21:27.333Z,79.20
2023-02-18T11:23:56.735Z,79.20
2023-02-18T11:26:29.402Z,79.00
2023-02-18T11:29:01.238Z,78.80
2023-02-18T11:31:43.657Z,78.70
2023-02-18T11:34:19.437Z,78.20
2023-02-18T11:36:48.394Z,78.40
2023-02-18T11:39:22.567Z,78.20
2023-02-18T11:41:56.906Z,77.80
2023-02-18T11:44:29.737Z,77.90
2023-02-18T11:47:02.076Z,77.90
2023-02-18T11:49:33.986Z,77.70
2023-02-18T11:52:15.514Z,77.80
2023-02-18T11:54:43.476Z,77.50
2023-02-18T11:57:26.367Z,77.60
2023-02-18T11:59:55.185Z,76.90
2023-02-18T12:02:33.784Z,77.00
2023-02-18T12:05:11.260Z,77.00
2023-02-18T12:07:45.492Z,76.90
2023-02-18T12:10:18.611Z,77.00
2023-02-18T12:12:49.555Z,77.00
2023-02-18T12:15:23.058Z,76.80
2023-02-18T12:18:02.561Z,76.80
2023-02-18T12:21:06.839Z,76.70
2023-02-18T12:23:43.781Z,76.60
2023-02-18T12:26:24.436Z,76.60
2023-02-18T12:29:28.650Z,76.70
2023-02-18T12:32:20.794Z,76.60
2023-02-18T12:35:04.028Z,76.40
2023-02-18T12:38:09.952Z,76.10
2023-02-18T12:41:11.473Z,75.70
2023-02-18T12:43:53.004Z,75.70
2023-02-18T12:46:39.340Z,75.40
2023-02-18T12:49:38.431Z,75.30
2023-02-18T12:52:18.238Z,75.20
2023-02-18T12:55:21.667Z,75.40
2023-02-18T12:57:55.371Z,75.30
2023-02-18T13:00:46.447Z,75.20
2023-02-18T13:03:48.561Z,75.10
2023-02-18T13:06:27.550Z,75.20
2023-02-18T13:09:04.362Z,75.00
2023-02-18T13:11:46.447Z,75.10
2023-02-18T13:14:19.768Z,75.10
2023-02-18T13:16:56.916Z,75.20
2023-02-18T13:19:28.761Z,75.30
2023-02-18T13:22:01.351Z,75.40
2023-02-18T13:24:34.093Z,75.40
2023-02-18T13:27:15.290Z,75.30
2023-02-18T13:29:49.711Z,75.30
2023-02-18T13:32:26.036Z,75.30
2023-02-18T13:35:01.087Z,75.00
2023-02-18T13:37:49.611Z,75.10
2023-02-18T13:40:22.193Z,75.00
2023-02-18T13:42:54.063Z,75.10
2023-02-18T13:45:30.910Z,75.20
2023-02-18T13:48:00.097Z,75.10
2023-02-18T13:50:32.193Z,75.00
2023-02-18T13:53:15.103Z,75.10
2023-02-18T13:55:49.821Z,75.10
2023-02-18T13:58:23.076Z,75.10
2023-02-18T14:00:55.891Z,75.10
2023-02-18T14:03:36.225Z,74.90
2023-02-18T14:06:15.525Z,74.90
2023-02-18T14:08:43.598Z,74.80
2023-02-18T14:11:42.590Z,74.80
2023-02-18T14:14:40.578Z,75.00
2023-02-18T14:17:42.001Z,75.10
2023-02-18T14:20:46.697Z,75.10
2023-02-18T14:23:46.038Z,75.30
2023-02-18T14:26:25.665Z,75.30
2023-02-18T14:28:57.360Z,75.30
2023-02-18T14:31:45.969Z,75.40
2023-02-18T14:34:47.187Z,75.60
2023-02-18T14:37:47.614Z,75.70
2023-02-18T14:40:27.729Z,75.80
2023-02-18T14:43:05.734Z,75.80
2023-02-18T14:45:45.449Z,75.80
2023-02-18T14:48:33.581Z,75.90
2023-02-18T14:51:01.773Z,75.90
2023-02-18T14:53:30.159Z,76.10
2023-02-18T14:56:00.904Z,76.10
2023-02-18T14:58:32.709Z,76.00
2023-02-18T15:01:08.009Z,76.10
2023-02-18T15:03:41.717Z,76.30
2023-02-18T15:06:29.264Z,76.30
2023-02-18T15:08:57.380Z,76.30
2023-02-18T15:11:28.956Z,76.40
2023-02-18T15:13:56.807Z,76.50
2023-02-18T15:16:28.355Z,76.60
2023-02-18T15:19:00.383Z,76.60
2023-02-18T15:21:31.321Z,76.80
2023-02-18T15:24:06.239Z,76.90
2023-02-18T15:26:34.725Z,76.80
2023-02-18T15:29:05.269Z,76.90
2023-02-18T15:31:50.042Z,77.00
2023-02-18T15:34:32.100Z,77.30
2023-02-18T15:37:01.396Z,77.40
2023-02-18T15:39:30.074Z,77.40
2023-02-18T15:42:03.793Z,77.50
2023-02-18T15:44:35.028Z,77.60
2023-02-18T15:47:03.956Z,77.70
2023-02-18T15:49:33.653Z,77.70
2023-02-18T15:52:03.266Z,77.90
2023-02-18T15:54:32.049Z,78.00
2023-02-18T15:57:03.945Z,78.20
2023-02-18T15:59:34.775Z,78.20
2023-02-18T16:02:17.503Z,78.20
2023-02-18T16:04:52.050Z,78.20
2023-02-18T16:07:24.929Z,78.10
2023-02-18T16:10:09.068Z,78.10
2023-02-18T16:12:39.860Z,78.10
2023-02-18T16:15:13.072Z,77.90
2023-02-18T16:17:45.146Z,77.80
2023-02-18T16:20:25.858Z,77.80
2023-02-18T16:22:55.424Z,77.90
2023-02-18T16:25:25.420Z,78.00
2023-02-18T16:27:55.706Z,77.90
2023-02-18T16:30:27.048Z,77.80
2023-02-18T16:32:55.454Z,78.20
2023-02-18T16:35:26.434Z,78.20
2023-02-18T16:37:57.645Z,78.00
2023-02-18T16:40:29.940Z,77.90
2023-02-18T16:42:59.673Z,77.90
2023-02-18T16:45:35.493Z,78.10
2023-02-18T16:48:04.015Z,78.30
2023-02-18T16:50:34.919Z,78.20
2023-02-18T16:53:03.136Z,78.30
2023-02-18T16:55:32.034Z,78.30
2023-02-18T16:57:59.929Z,78.30
2023-02-18T17:00:27.859Z,78.40
2023-02-18T17:02:58.724Z,78.50
2023-02-18T17:05:29.876Z,78.50
2023-02-18T17:08:05.978Z,78.60
2023-02-18T17:10:35.841Z,78.60
2023-02-18T17:13:03.709Z,78.60
2023-02-18T17:15:34.351Z,78.50
2023-02-18T17:18:04.484Z,78.60
2023-02-18T17:20:34.567Z,78.50
2023-02-18T17:23:03.852Z,78.70
2023-02-18T17:25:35.193Z,78.80
2023-02-18T17:28:03.931Z,78.90
2023-02-18T17:30:33.103Z,78.90
2023-02-18T17:33:03.277Z,78.90
2023-02-18T17:35:32.183Z,79.00
2023-02-18T17:38:00.833Z,79.00
2023-02-18T17:40:31.124Z,79.00
2023-02-18T17:42:59.549Z,78.90
2023-02-18T17:45:31.995Z,79.00
2023-02-18T17:48:01.460Z,78.90
2023-02-18T17:50:31.296Z,79.00
2023-02-18T17:52:59.240Z,79.00
2023-02-18T17:55:29.018Z,79.00
2023-02-18T17:57:59.555Z,79.20
2023-02-18T18:00:29.861Z,79.20
2023-02-18T18:02:57.896Z,79.10
2023-02-18T18:05:28.542Z,79.20
2023-02-18T18:07:56.615Z,79.30
2023-02-18T18:10:30.543Z,79.30
2023-02-18T18:13:00.811Z,79.40
2023-02-18T18:15:31.440Z,79.40
2023-02-18T18:17:59.551Z,79.50
2023-02-18T18:20:29.425Z,79.50
2023-02-18T18:22:58.962Z,79.50
2023-02-18T18:25:29.817Z,79.50
2023-02-18T18:27:59.217Z,79.50
2023-02-18T18:30:29.356Z,79.60
2023-02-18T18:32:57.893Z,79.70
2023-02-18T18:35:28.886Z,79.80
2023-02-18T18:37:57.923Z,79.60
2023-02-18T18:40:28.609Z,79.50
2023-02-18T18:42:58.115Z,79.30
2023-02-18T18:45:30.718Z,79.40
2023-02-18T18:47:59.316Z,79.40
2023-02-18T18:50:28.651Z,79.40
2023-02-18T18:52:57.120Z,79.40
2023-02-18T18:55:29.024Z,79.30
2023-02-18T18:57:57.536Z,79.40
2023-02-18T19:00:29.586Z,79.10
2023-02-18T19:02:57.806Z,79.10
2023-02-18T19:05:29.009Z,78.90
2023-02-18T19:07:58.315Z,78.90
2023-02-18T19:10:28.818Z,78.80
2023-02-18T19:13:01.898Z,78.90
2023-02-18T19:15:31.590Z,78.90
2023-02-18T19:17:59.491Z,78.90
2023-02-18T19:20:30.424Z,78.90
2023-02-18T19:22:58.352Z,78.80
2023-02-18T19:25:26.849Z,78.60
2023-02-18T19:27:54.721Z,78.50
2023-02-18T19:30:24.304Z,78.50
2023-02-18T19:32:55.217Z,78.40
2023-02-18T19:35:26.428Z,78.20
2023-02-18T19:37:54.713Z,78.30
2023-02-18T19:40:25.284Z,78.30
2023-02-18T19:42:55.503Z,78.30
2023-02-18T19:45:23.608Z,78.30
2023-02-18T19:47:55.972Z,78.30
2023-02-18T19:50:24.729Z,78.10
2023-02-18T19:52:53.204Z,78.40
2023-02-18T19:55:21.702Z,78.20
2023-02-18T19:57:50.573Z,78.00
2023-02-18T20:00:20.445Z,77.90
2023-02-18T20:02:48.385Z,78.10
2023-02-18T20:05:19.035Z,78.10
2023-02-18T20:07:47.103Z,78.20
2023-02-18T20:10:17.275Z,78.20
2023-02-18T20:12:45.238Z,78.20
2023-02-18T20:15:13.355Z,78.30
2023-02-18T20:17:41.257Z,78.30
2023-02-18T20:20:09.676Z,78.30
2023-02-18T20:22:38.987Z,78.00
2023-02-18T20:25:07.548Z,78.00
2023-02-18T20:27:37.509Z,78.00
2023-02-18T20:30:09.338Z,77.70
2023-02-18T20:32:38.094Z,77.70
2023-02-18T20:35:06.979Z,77.90
2023-02-18T20:37:35.148Z,78.00
2023-02-18T20:40:04.711Z,78.10
2023-02-18T20:42:33.714Z,78.00
2023-02-18T20:45:01.616Z,77.90
2023-02-18T20:47:29.479Z,78.00
2023-02-18T20:49:57.323Z,78.10
2023-02-18T20:52:25.174Z,78.10
2023-02-18T20:54:53.074Z,78.00
2023-02-18T20:57:22.324Z,77.90
2023-02-18T20:59:50.167Z,78.00
2023-02-18T21:02:18.105Z,78.10
2023-02-18T21:04:46.209Z,78.10
2023-02-18T21:07:14.162Z,77.90
2023-02-18T21:09:42.009Z,78.00
2023-02-18T21:12:09.887Z,78.00
2023-02-18T21:14:39.082Z,78.00
2023-02-18T21:17:08.579Z,77.90
2023-02-18T21:19:37.550Z,77.90
2023-02-18T21:22:05.965Z,78.00
2023-02-18T21:24:33.818Z,78.00
2023-02-18T21:27:01.711Z,77.90
2023-02-18T21:29:29.570Z,78.00
2023-02-18T21:31:58.788Z,78.00
2023-02-18T21:34:26.681Z,78.00
2023-02-18T21:36:54.520Z,77.90
2023-02-18T21:39:22.333Z,77.90
2023-02-18T21:41:50.237Z,78.00
2023-02-18T21:44:18.086Z,77.90
2023-02-18T21:46:45.984Z,78.00
2023-02-18T21:49:15.821Z,77.90
2023-02-18T21:51:57.838Z,78.00
2023-02-18T21:54:28.288Z,78.10
2023-02-18T21:56:58.107Z,78.10
2023-02-18T21:59:28.109Z,78.10
2023-02-18T22:01:56.885Z,77.90
2023-02-18T22:04:26.478Z,78.00
2023-02-18T22:06:54.491Z,77.70
2023-02-18T22:09:22.363Z,77.90
2023-02-18T22:11:50.380Z,78.00
2023-02-18T22:14:18.528Z,77.90
2023-02-18T22:16:46.870Z,77.80
2023-02-18T22:19:15.890Z,77.90
2023-02-18T22:21:45.551Z,77.80
2023-02-18T22:24:15.067Z,77.90
2023-02-18T22:26:43.879Z,78.00
2023-02-18T22:29:12.903Z,78.10
2023-02-18T22:31:41.332Z,78.20
2023-02-18T22:34:10.860Z,78.20
2023-02-18T22:36:38.703Z,78.30
2023-02-18T22:39:08.701Z,78.20
2023-02-18T22:41:37.107Z,78.10
2023-02-18T22:44:06.734Z,78.00
2023-02-18T22:46:37.068Z,78.00
2023-02-18T22:49:05.926Z,78.10
2023-02-18T22:51:37.634Z,78.00
2023-02-18T22:54:08.615Z,77.90
2023-02-18T22:56:36.826Z,77.80
2023-02-18T22:59:06.218Z,77.90
2023-02-18T23:01:36.334Z,77.80
2023-02-18T23:04:09.188Z,78.00
2023-02-18T23:06:38.230Z,78.00
2023-02-18T23:09:08.657Z,78.00
2023-02-18T23:11:37.070Z,78.00
2023-02-18T23:14:20.066Z,78.10
2023-02-18T23:17:06.556Z,78.10
2023-02-18T23:19:35.752Z,78.10
2023-02-18T23:22:03.941Z,78.00
2023-02-18T23:24:34.559Z,77.90
2023-02-18T23:27:03.122Z,78.10
2023-02-18T23:29:31.021Z,78.10
2023-02-18T23:31:59.148Z,78.10
2023-02-18T23:34:28.459Z,78.10
2023-02-18T23:36:56.944Z,78.00
2023-02-18T23:39:25.261Z,77.90
2023-02-18T23:41:54.554Z,78.00
2023-02-18T23:44:24.880Z,78.00
2023-02-18T23:46:53.446Z,78.00
2023-02-18T23:49:23.147Z,78.00
2023-02-18T23:51:52.413Z,78.00
2023-02-18T23:54:20.884Z,78.10
2023-02-18T23:56:48.993Z,78.00
2023-02-18T23:59:18.632Z,78.00
